Time;durP1;ratioP1;P1;durP2;ratioP2;P2;SDS_P1;SDS_P2;PMS_P1;PMS_P2;Temp;Humidity;BMP_temperature;BMP_pressure;BME280_temperature;BME280_humidity;BME280_pressure;Samples;Min_cycle;Max_cycle;Signal;HPM_P1;HPM_P2
2022/04/13 00:00:27;;;;;;;;;;;;;;;25.97;35.88;93888.16;5033223;28;7218;-70
2022/04/13 00:03:03;;;;;;;;;;;;;;;25.97;36.11;93887.41;5052235;28;9547;-70
2022/04/13 00:05:29;;;;;;;;;;;;;;;25.97;36.65;93890.16;5046399;28;8753;-70
2022/04/13 00:07:56;;;;;;;;;;;;;;;25.97;36.42;93888.16;5043348;28;7156;-70
2022/04/13 00:10:22;;;;;;;;;;;;;;;25.98;36.66;93886.16;5041559;28;9036;-70
2022/04/13 00:12:51;;;;;;;;;;;;;;;25.97;36.60;93884.66;5047030;28;7255;-70
2022/04/13 00:15:19;;;;;;;;;;;;;;;25.94;35.62;93900.25;5057617;28;8595;-70
2022/04/13 00:17:49;;;;;;;;;;;;;;;25.94;36.74;93886.47;5027680;28;7873;-70
2022/04/13 00:20:21;;;;;;;;;;;;;;;25.93;36.70;93887.72;5042345;28;7245;-70
2022/04/13 00:23:37;;;;;;;;;;;;;;;25.93;36.32;93889.72;5043026;28;8985;-70
2022/04/13 00:26:13;;;;;;;;;;;;;;;25.91;36.51;93890.25;5025570;28;7276;-70
2022/04/13 00:28:54;;;;;;;;;;;;;;;25.91;35.80;93890.25;5034044;28;8699;-70
2022/04/13 00:31:58;;;;;;;;;;;;;;;25.90;35.89;93894.28;5049393;28;7250;-70
2022/04/13 00:34:39;;;;;;;;;;;;;;;25.91;36.37;93900.53;4966292;28;7262;-70
2022/04/13 00:37:42;;;;;;;;;;;;;;;25.90;36.53;93893.56;4983713;28;8786;-70
2022/04/13 00:40:09;;;;;;;;;;;;;;;25.90;36.11;93899.78;4926096;29;9075;-70
2022/04/13 00:42:38;;;;;;;;;;;;;;;25.89;36.16;93895.56;4912124;29;7518;-70
2022/04/13 00:45:06;;;;;;;;;;;;;;;25.89;36.00;93897.56;4918870;29;7094;-70
2022/04/13 00:47:39;;;;;;;;;;;;;;;25.81;36.75;93900.19;4925589;29;7095;-70
2022/04/13 00:50:24;;;;;;;;;;;;;;;25.82;35.89;93901.66;4925582;29;7423;-70
2022/04/13 00:53:21;;;;;;;;;;;;;;;25.85;36.75;93891.63;4917627;29;9084;-70
2022/04/13 00:56:03;;;;;;;;;;;;;;;25.86;36.23;93899.34;4874323;29;9101;-70
2022/04/13 00:58:46;;;;;;;;;;;;;;;25.88;35.78;93891.31;4873336;29;7307;-70
2022/04/13 01:01:30;;;;;;;;;;;;;;;25.87;36.66;93900.84;4860129;29;6994;-70
2022/04/13 01:04:04;;;;;;;;;;;;;;;25.85;36.81;93908.91;4868005;29;8754;-70
2022/04/13 01:06:31;;;;;;;;;;;;;;;25.83;36.45;93903.16;4859695;29;9154;-70
2022/04/13 01:08:58;;;;;;;;;;;;;;;25.83;36.09;93916.94;4866400;29;7200;-70
2022/04/13 01:11:29;;;;;;;;;;;;;;;25.82;36.42;93907.19;4876161;29;7271;-70
2022/04/13 01:13:59;;;;;;;;;;;;;;;25.84;36.21;93912.16;4892576;28;9345;-70
2022/04/13 01:16:29;;;;;;;;;;;;;;;25.82;36.17;93915.44;4937220;28;7510;-70
2022/04/13 01:18:57;;;;;;;;;;;;;;;25.82;36.21;93925.72;4935049;28;8946;-70
2022/04/13 01:21:58;;;;;;;;;;;;;;;25.83;36.40;93927.97;4935816;28;8006;-70
2022/04/13 01:24:38;;;;;;;;;;;;;;;25.81;36.36;93929.75;4950758;28;9422;-70
2022/04/13 01:27:16;;;;;;;;;;;;;;;25.82;35.97;93931.22;4935425;28;7034;-70
2022/04/13 01:29:54;;;;;;;;;;;;;;;25.81;35.63;93932.50;4935730;28;9147;-70
2022/04/13 01:32:26;;;;;;;;;;;;;;;25.77;36.09;93930.06;4980614;28;7253;-70
2022/04/13 01:35:37;;;;;;;;;;;;;;;25.81;35.89;93940.78;5051957;28;9285;-70
2022/04/13 01:38:04;;;;;;;;;;;;;;;25.78;36.45;93941.81;5036412;28;7063;-70
2022/04/13 01:40:30;;;;;;;;;;;;;;;25.78;36.24;93941.81;5044954;28;8763;-70
2022/04/13 01:42:59;;;;;;;;;;;;;;;25.79;36.45;93949.56;5037776;28;9003;-70
2022/04/13 01:45:30;;;;;;;;;;;;;;;25.77;36.68;93946.59;5042050;28;8240;-70
2022/04/13 01:48:09;;;;;;;;;;;;;;;25.75;36.68;93948.38;5048737;28;7287;-70
2022/04/13 01:51:02;;;;;;;;;;;;;;;25.76;36.09;93960.88;5046899;28;8812;-70
2022/04/13 01:53:30;;;;;;;;;;;;;;;25.75;36.17;93951.84;5038390;28;9466;-70
2022/04/13 01:55:57;;;;;;;;;;;;;;;25.76;36.50;93955.34;5045470;28;9171;-70
2022/04/13 01:58:23;;;;;;;;;;;;;;;25.75;36.00;93957.34;5047871;28;9109;-70
2022/04/13 02:00:54;;;;;;;;;;;;;;;25.74;36.43;93952.38;5047023;28;10119;-70
2022/04/13 02:03:23;;;;;;;;;;;;;;;25.72;36.49;93955.66;5031947;28;7143;-70
2022/04/13 02:05:52;;;;;;;;;;;;;;;25.73;36.65;93951.63;5031250;28;9171;-70
2022/04/13 02:08:22;;;;;;;;;;;;;;;25.74;35.98;93952.38;5036871;28;9156;-70
2022/04/13 02:10:49;;;;;;;;;;;;;;;25.73;36.50;93956.41;5036884;28;6971;-70
2022/04/13 02:13:16;;;;;;;;;;;;;;;25.72;36.00;93952.91;5043913;28;7239;-70
2022/04/13 02:15:45;;;;;;;;;;;;;;;25.73;36.49;93959.91;5031793;28;9709;-70
2022/04/13 02:18:13;;;;;;;;;;;;;;;25.72;36.43;93947.41;5040695;28;8495;-70
2022/04/13 02:20:39;;;;;;;;;;;;;;;25.69;36.17;93951.19;5032077;28;7048;-71
2022/04/13 02:23:05;;;;;;;;;;;;;;;25.70;36.36;93955.44;5035049;28;9112;-70
2022/04/13 02:25:51;;;;;;;;;;;;;;;25.69;35.81;93950.44;5046870;28;7252;-70
2022/04/13 02:28:26;;;;;;;;;;;;;;;25.69;36.46;93945.69;5046493;28;7253;-69
2022/04/13 02:31:01;;;;;;;;;;;;;;;25.69;36.29;93942.94;5053683;28;8625;-70
2022/04/13 02:33:32;;;;;;;;;;;;;;;25.68;36.02;93949.72;5027901;28;9026;-70
2022/04/13 02:36:26;;;;;;;;;;;;;;;25.69;36.60;93945.69;5023222;28;9205;-70
2022/04/13 02:39:04;;;;;;;;;;;;;;;25.66;36.50;93946.75;4966319;28;9133;-70
2022/04/13 02:41:42;;;;;;;;;;;;;;;25.66;36.53;93952.25;4956416;28;7429;-70
2022/04/13 02:44:41;;;;;;;;;;;;;;;25.67;36.61;93939.19;4973976;28;8292;-70
2022/04/13 02:47:07;;;;;;;;;;;;;;;25.67;35.58;93952.97;4979940;28;9099;-69
2022/04/13 02:49:35;;;;;;;;;;;;;;;25.66;36.31;93946.00;4975068;28;9175;-71
2022/04/13 02:52:54;;;;;;;;;;;;;;;25.66;35.59;93946.00;4974074;28;7166;-71
2022/04/13 02:55:32;;;;;;;;;;;;;;;25.65;35.67;93950.00;4931194;29;6951;-70
2022/04/13 02:57:59;;;;;;;;;;;;;;;25.66;35.76;93943.25;4916314;29;7176;-70
2022/04/13 03:00:25;;;;;;;;;;;;;;;25.66;36.38;93943.25;4932299;29;7504;-70
2022/04/13 03:03:02;;;;;;;;;;;;;;;25.66;35.97;93948.75;4914598;29;7113;-70
2022/04/13 03:05:31;;;;;;;;;;;;;;;25.64;35.90;93941.00;4927437;29;8097;-69
2022/04/13 03:07:57;;;;;;;;;;;;;;;25.63;35.83;93942.28;4908682;29;7254;-70
2022/04/13 03:10:26;;;;;;;;;;;;;;;25.64;36.66;93954.78;4935514;29;7508;-70
2022/04/13 03:12:53;;;;;;;;;;;;;;;25.65;36.23;93944.50;4934499;29;7575;-70
2022/04/13 03:15:22;;;;;;;;;;;;;;;25.64;35.95;93949.28;4933982;28;6986;-70
2022/04/13 03:17:51;;;;;;;;;;;;;;;25.64;36.01;93946.53;4989731;28;9387;-70
2022/04/13 03:20:19;;;;;;;;;;;;;;;25.65;35.98;93950.75;4960966;28;8732;-70
2022/04/13 03:22:54;;;;;;;;;;;;;;;25.63;36.24;93944.28;4992503;28;8736;-70
2022/04/13 03:25:34;;;;;;;;;;;;;;;25.63;35.68;93950.53;4987490;28;7257;-70
2022/04/13 03:28:23;;;;;;;;;;;;;;;25.62;36.16;93949.03;4990486;28;9113;-70
2022/04/13 03:30:51;;;;;;;;;;;;;;;25.62;35.91;93935.25;5001567;28;7234;-70
2022/04/13 03:33:33;;;;;;;;;;;;;;;25.62;35.71;93942.78;5050479;28;7292;-70
2022/04/13 03:36:01;;;;;;;;;;;;;;;25.60;36.13;93948.81;5037206;28;9014;-70
2022/04/13 03:38:31;;;;;;;;;;;;;;;25.61;36.41;93938.53;5044592;28;7191;-70
2022/04/13 03:40:58;;;;;;;;;;;;;;;25.61;35.47;93950.31;5042713;28;8764;-70
2022/04/13 03:43:27;;;;;;;;;;;;;;;25.59;35.79;93938.31;5044016;28;7430;-70
2022/04/13 03:46:00;;;;;;;;;;;;;;;25.59;35.84;93941.06;5050136;28;8743;-70
2022/04/13 03:48:31;;;;;;;;;;;;;;;25.60;35.61;93932.28;5043604;28;7229;-70
2022/04/13 03:51:28;;;;;;;;;;;;;;;25.60;35.57;93940.53;5051501;28;7054;-70
2022/04/13 03:53:53;;;;;;;;;;;;;;;25.63;36.30;93936.00;4991602;28;9493;-70
2022/04/13 03:56:20;;;;;;;;;;;;;;;25.61;36.08;93941.28;4979672;28;6982;-70
2022/04/13 03:58:47;;;;;;;;;;;;;;;25.59;35.66;93936.31;4977686;28;7154;-70
2022/04/13 04:01:32;;;;;;;;;;;;;;;25.61;35.86;93939.28;4982646;28;7014;-70
2022/04/13 04:03:59;;;;;;;;;;;;;;;25.61;35.68;93938.53;4986258;28;7445;-71
2022/04/13 04:06:27;;;;;;;;;;;;;;;25.59;35.99;93941.81;4979227;28;7183;-71
2022/04/13 04:08:53;;;;;;;;;;;;;;;25.57;35.67;93933.34;4992121;28;9422;-70
2022/04/13 04:11:19;;;;;;;;;;;;;;;25.56;36.47;93937.34;4993565;28;7168;-59
2022/04/13 04:13:45;;;;;;;;;;;;;;;25.56;36.35;93937.34;4980936;28;7399;-60
2022/04/13 04:16:11;;;;;;;;;;;;;;;25.57;35.53;93941.59;4991527;28;7221;-60
2022/04/13 04:18:57;;;;;;;;;;;;;;;25.58;35.62;93936.84;4986753;28;6983;-60
2022/04/13 04:21:23;;;;;;;;;;;;;;;25.56;35.25;93936.59;4989878;28;7026;-60
2022/04/13 04:23:51;;;;;;;;;;;;;;;25.56;35.85;93936.59;4988957;28;9382;-60
2022/04/13 04:26:19;;;;;;;;;;;;;;;25.55;36.14;93941.38;4976584;28;9181;-60
2022/04/13 04:28:47;;;;;;;;;;;;;;;25.55;35.66;93938.63;4994790;28;9373;-60
2022/04/13 04:31:19;;;;;;;;;;;;;;;25.56;36.05;93940.09;5038178;28;9481;-60
2022/04/13 04:33:47;;;;;;;;;;;;;;;25.55;36.34;93949.66;5045524;28;9097;-60
2022/04/13 04:36:13;;;;;;;;;;;;;;;25.54;35.44;93948.13;5033014;28;8756;-60
2022/04/13 04:38:39;;;;;;;;;;;;;;;25.52;36.19;93942.41;5040873;28;9369;-60
2022/04/13 04:41:09;;;;;;;;;;;;;;;25.51;36.05;93946.44;5041608;28;9337;-60
2022/04/13 04:43:39;;;;;;;;;;;;;;;25.52;35.97;93953.44;5061914;28;7380;-60
2022/04/13 04:46:10;;;;;;;;;;;;;;;25.51;35.73;93943.69;5042986;28;7000;-60
2022/04/13 04:48:42;;;;;;;;;;;;;;;25.51;36.03;93951.97;5041659;28;9154;-60
2022/04/13 04:51:15;;;;;;;;;;;;;;;25.53;35.64;93949.44;5031553;28;7281;-60
2022/04/13 04:53:41;;;;;;;;;;;;;;;25.51;35.63;93946.44;5033456;28;9118;-60
2022/04/13 04:56:07;;;;;;;;;;;;;;;25.54;36.18;93955.66;5049308;28;7502;-60
2022/04/13 04:58:34;;;;;;;;;;;;;;;25.54;36.08;93955.66;5036475;28;9281;-60
2022/04/13 05:01:00;;;;;;;;;;;;;;;25.52;35.86;93953.44;5043467;28;7509;-60
2022/04/13 05:03:26;;;;;;;;;;;;;;;25.49;35.99;93957.22;5041118;28;7374;-60
2022/04/13 05:05:51;;;;;;;;;;;;;;;25.50;35.68;93964.22;5049027;28;7991;-60
2022/04/13 05:08:17;;;;;;;;;;;;;;;25.50;36.02;93966.97;5038428;28;9388;-61
2022/04/13 05:10:54;;;;;;;;;;;;;;;25.50;35.56;93961.47;5038171;28;7257;-61
2022/04/13 05:13:25;;;;;;;;;;;;;;;25.50;35.28;93966.22;5035984;28;9114;-61
2022/04/13 05:15:52;;;;;;;;;;;;;;;25.50;35.78;93966.97;5058423;28;9477;-60
2022/04/13 05:18:26;;;;;;;;;;;;;;;25.50;36.13;93969.72;5060601;28;8608;-61
2022/04/13 05:21:05;;;;;;;;;;;;;;;25.48;35.87;93964.00;5043072;28;9040;-61
2022/04/13 05:23:32;;;;;;;;;;;;;;;25.49;35.73;93979.25;5036391;28;9467;-61
2022/04/13 05:25:58;;;;;;;;;;;;;;;25.49;35.89;93970.25;5038410;28;9080;-60
2022/04/13 05:28:24;;;;;;;;;;;;;;;25.48;35.29;93968.75;5059618;28;9082;-61
2022/04/13 05:31:02;;;;;;;;;;;;;;;25.49;35.89;93970.97;5040971;28;7236;-61
2022/04/13 05:33:41;;;;;;;;;;;;;;;25.49;35.34;93973.72;5043261;28;7229;-60
2022/04/13 05:36:08;;;;;;;;;;;;;;;25.49;35.60;93975.75;5048713;28;7303;-61
2022/04/13 05:38:34;;;;;;;;;;;;;;;25.49;35.13;93981.28;5054470;28;7210;-60
2022/04/13 05:41:07;;;;;;;;;;;;;;;25.48;35.41;93979.78;5041896;28;9090;-61
2022/04/13 05:43:46;;;;;;;;;;;;;;;25.47;35.28;93979.03;5053397;28;7257;-61
2022/04/13 05:46:11;;;;;;;;;;;;;;;25.43;35.13;93979.31;5042690;28;7355;-61
2022/04/13 05:48:37;;;;;;;;;;;;;;;25.45;35.55;93980.81;5038782;28;9068;-60
2022/04/13 05:51:09;;;;;;;;;;;;;;;25.43;35.36;93984.81;5038373;28;8768;-60
2022/04/13 05:53:36;;;;;;;;;;;;;;;25.44;35.35;93982.81;5043950;28;9033;-60
2022/04/13 05:56:03;;;;;;;;;;;;;;;25.43;35.39;93984.06;5034074;28;9285;-60
2022/04/13 05:58:29;;;;;;;;;;;;;;;25.44;35.79;93980.06;5032873;28;9142;-60
2022/04/13 06:00:56;;;;;;;;;;;;;;;25.43;35.52;93986.84;5039809;28;7557;-61
2022/04/13 06:03:23;;;;;;;;;;;;;;;25.41;35.88;93981.81;5032682;28;7231;-61
2022/04/13 06:05:51;;;;;;;;;;;;;;;25.42;35.25;93993.63;5039330;28;9049;-61
2022/04/13 06:08:17;;;;;;;;;;;;;;;25.41;34.99;93989.34;5039771;28;9343;-61
2022/04/13 06:10:44;;;;;;;;;;;;;;;25.40;35.40;93993.38;5039160;28;7273;-60
2022/04/13 06:13:11;;;;;;;;;;;;;;;25.39;35.78;94005.63;5033602;28;9911;-61
2022/04/13 06:15:39;;;;;;;;;;;;;;;25.39;35.83;94011.13;5045652;28;8769;-61
2022/04/13 06:18:05;;;;;;;;;;;;;;;25.37;35.36;94008.91;5028384;28;8771;-60
2022/04/13 06:20:35;;;;;;;;;;;;;;;25.38;35.78;94015.16;5045266;28;7484;-60
2022/04/13 06:23:04;;;;;;;;;;;;;;;25.40;35.82;94023.66;5035323;28;9245;-60
2022/04/13 06:25:32;;;;;;;;;;;;;;;25.39;35.70;94017.38;5035536;28;9135;-60
2022/04/13 06:28:00;;;;;;;;;;;;;;;25.37;35.74;94019.16;5040089;28;9068;-60
2022/04/13 06:30:26;;;;;;;;;;;;;;;25.39;35.47;94016.63;5044102;28;7869;-60
2022/04/13 06:32:55;;;;;;;;;;;;;;;25.38;35.38;94024.16;5029982;28;8376;-60
2022/04/13 06:35:23;;;;;;;;;;;;;;;25.38;36.02;94026.19;5042233;28;7261;-60
2022/04/13 06:37:55;;;;;;;;;;;;;;;25.37;35.80;94030.19;5029410;28;7084;-60
2022/04/13 06:40:24;;;;;;;;;;;;;;;25.33;36.10;94024.22;5035795;28;7239;-60
2022/04/13 06:42:50;;;;;;;;;;;;;;;25.37;35.39;94035.69;5038934;28;9250;-60
2022/04/13 06:45:19;;;;;;;;;;;;;;;25.40;35.30;94034.66;5053150;28;7007;-60
2022/04/13 06:47:48;;;;;;;;;;;;;;;25.38;36.00;94037.19;5057047;28;7377;-60
2022/04/13 06:50:16;;;;;;;;;;;;;;;25.37;35.60;94035.69;5037544;28;8424;-60
2022/04/13 06:52:43;;;;;;;;;;;;;;;25.37;35.99;94050.19;5036838;28;7333;-60
2022/04/13 06:55:12;;;;;;;;;;;;;;;25.38;35.32;94050.97;5033395;28;6997;-60
2022/04/13 06:57:39;;;;;;;;;;;;;;;25.39;35.61;94047.69;5042792;28;7317;-60
2022/04/13 07:00:10;;;;;;;;;;;;;;;25.37;35.34;94046.69;5050997;28;9083;-60
2022/04/13 07:02:40;;;;;;;;;;;;;;;25.38;35.54;94040.66;5055366;28;7606;-61
2022/04/13 07:05:09;;;;;;;;;;;;;;;25.39;35.47;94049.69;5030698;28;9289;-60
2022/04/13 07:07:37;;;;;;;;;;;;;;;25.40;35.45;94043.66;5035038;28;9110;-60
2022/04/13 07:10:06;;;;;;;;;;;;;;;25.40;35.87;94040.88;5047556;28;9739;-60
2022/04/13 07:12:39;;;;;;;;;;;;;;;25.41;35.58;94044.41;5031454;28;9100;-60
2022/04/13 07:15:08;;;;;;;;;;;;;;;25.40;35.64;94049.16;5037752;28;8878;-61
2022/04/13 07:17:39;;;;;;;;;;;;;;;25.44;35.35;94054.41;5045796;28;7091;-58
2022/04/13 07:20:07;;;;;;;;;;;;;;;25.45;35.30;94055.88;5047107;28;9639;-58
2022/04/13 07:22:42;;;;;;;;;;;;;;;25.45;35.04;94055.16;5052995;28;9174;-58
2022/04/13 07:25:08;;;;;;;;;;;;;;;25.45;35.87;94052.41;5049601;28;9001;-58
2022/04/13 07:27:36;;;;;;;;;;;;;;;25.45;35.58;94046.91;5036448;28;9333;-58
2022/04/13 07:30:03;;;;;;;;;;;;;;;25.47;34.89;94058.16;5020709;28;9690;-58
2022/04/13 07:32:30;;;;;;;;;;;;;;;25.47;35.13;94055.38;5041091;28;7057;-58
2022/04/13 07:35:03;;;;;;;;;;;;;;;25.45;35.68;94050.38;5037291;28;7528;-58
2022/04/13 07:37:33;;;;;;;;;;;;;;;25.46;35.92;94053.88;5032054;28;7277;-58
2022/04/13 07:40:01;;;;;;;;;;;;;;;25.46;36.26;94051.13;5037812;28;7375;-58
2022/04/13 07:42:28;;;;;;;;;;;;;;;25.46;35.54;94060.16;5041099;28;9488;-58
2022/04/13 07:44:54;;;;;;;;;;;;;;;25.47;35.78;94056.13;5038680;28;9290;-58
2022/04/13 07:47:23;;;;;;;;;;;;;;;25.47;35.27;94058.88;5048089;28;9209;-58
2022/04/13 07:49:49;;;;;;;;;;;;;;;25.49;35.79;94052.88;5030884;28;7298;-58
2022/04/13 07:52:16;;;;;;;;;;;;;;;25.49;35.06;94055.63;5057176;28;7068;-58
2022/04/13 07:54:44;;;;;;;;;;;;;;;25.50;35.68;94057.09;5037273;28;9155;-58
2022/04/13 07:57:15;;;;;;;;;;;;;;;25.50;35.33;94054.34;5046324;28;6982;-58
2022/04/13 07:59:42;;;;;;;;;;;;;;;25.47;35.38;94056.13;5051498;28;8704;-57
2022/04/13 08:02:10;;;;;;;;;;;;;;;25.47;35.91;94058.88;5033021;28;9071;-58
2022/04/13 08:04:36;;;;;;;;;;;;;;;25.47;35.36;94066.41;5041996;28;7340;-58
2022/04/13 08:07:03;;;;;;;;;;;;;;;25.47;35.85;94066.41;5037578;28;7067;-58
2022/04/13 08:09:29;;;;;;;;;;;;;;;25.45;35.55;94064.16;5041232;28;7750;-58
2022/04/13 08:11:55;;;;;;;;;;;;;;;25.48;36.06;94067.88;5048513;28;9271;-58
2022/04/13 08:14:22;;;;;;;;;;;;;;;25.47;35.75;94069.16;5038801;28;7238;-58
2022/04/13 08:16:49;;;;;;;;;;;;;;;25.46;35.86;94071.16;5044204;28;9068;-58
2022/04/13 08:19:17;;;;;;;;;;;;;;;25.47;35.64;94072.63;5038855;28;7272;-58
2022/04/13 08:21:44;;;;;;;;;;;;;;;25.46;35.67;94079.41;5035156;28;7275;-58
2022/04/13 08:24:17;;;;;;;;;;;;;;;25.46;35.46;94075.91;5051734;28;9542;-58
2022/04/13 08:26:50;;;;;;;;;;;;;;;25.46;35.34;94076.66;5047406;28;7209;-58
2022/04/13 08:29:17;;;;;;;;;;;;;;;25.49;35.76;94080.41;5038724;28;9073;-58
2022/04/13 08:31:45;;;;;;;;;;;;;;;25.49;35.74;94083.16;5049951;28;9298;-58
2022/04/13 08:34:12;;;;;;;;;;;;;;;25.48;35.44;94087.91;5053704;28;9555;-58
2022/04/13 08:36:55;;;;;;;;;;;;;;;25.50;35.67;94088.13;5049961;28;7943;-58
2022/04/13 08:39:23;;;;;;;;;;;;;;;25.51;35.84;94084.13;5049216;28;9594;-58
2022/04/13 08:41:58;;;;;;;;;;;;;;;25.53;35.88;94087.13;5057322;28;9095;-58
2022/04/13 08:44:48;;;;;;;;;;;;;;;25.52;35.78;94091.13;5052240;28;7034;-58
2022/04/13 08:47:36;;;;;;;;;;;;;;;25.54;35.46;94091.34;5053214;28;7149;-58
2022/04/13 08:50:17;;;;;;;;;;;;;;;25.54;35.72;94087.84;5044663;28;9551;-58
2022/04/13 08:53:07;;;;;;;;;;;;;;;25.54;35.75;94090.59;5042774;28;9482;-58
2022/04/13 08:55:53;;;;;;;;;;;;;;;25.55;35.78;94089.34;5037500;28;7457;-58
2022/04/13 08:58:41;;;;;;;;;;;;;;;25.53;35.82;94084.34;5047265;28;9120;-58
2022/04/13 09:01:36;;;;;;;;;;;;;;;25.52;35.14;94085.59;5035357;28;7079;-58
2022/04/13 09:04:10;;;;;;;;;;;;;;;25.56;35.36;94093.56;5031492;28;7300;-58
2022/04/13 09:06:40;;;;;;;;;;;;;;;25.54;35.71;94094.09;5047295;28;7387;-58
2022/04/13 09:09:15;;;;;;;;;;;;;;;25.58;35.58;94091.06;5044990;28;7264;-58
2022/04/13 09:11:44;;;;;;;;;;;;;;;25.59;35.98;94095.28;5041252;28;7083;-58
2022/04/13 09:14:10;;;;;;;;;;;;;;;25.59;34.91;94090.53;5044815;28;8089;-58
2022/04/13 09:16:42;;;;;;;;;;;;;;;25.59;36.08;94095.28;5046554;28;9364;-58
2022/04/13 09:19:08;;;;;;;;;;;;;;;25.59;35.35;94090.53;5033040;28;7227;-58
2022/04/13 09:21:34;;;;;;;;;;;;;;;25.60;35.47;94086.50;5044169;28;7093;-58
2022/04/13 09:24:02;;;;;;;;;;;;;;;25.62;35.42;94100.50;5029867;28;9109;-58
2022/04/13 09:26:32;;;;;;;;;;;;;;;25.60;35.14;94089.25;5040222;28;9441;-58
2022/04/13 09:29:03;;;;;;;;;;;;;;;25.62;35.36;94097.75;5044011;28;7324;-58
2022/04/13 09:31:31;;;;;;;;;;;;;;;25.62;35.77;94095.00;5037208;28;6963;-58
2022/04/13 09:33:57;;;;;;;;;;;;;;;25.61;35.53;94098.28;5032529;28;6961;-58
2022/04/13 09:36:26;;;;;;;;;;;;;;;25.57;35.52;94093.06;5035467;28;6997;-59
2022/04/13 09:38:56;;;;;;;;;;;;;;;25.60;35.38;94092.00;5042533;28;7257;-58
2022/04/13 09:41:36;;;;;;;;;;;;;;;25.64;35.35;94094.50;5051423;28;7057;-58
2022/04/13 09:44:14;;;;;;;;;;;;;;;25.64;35.40;94095.25;5036474;28;9068;-58
2022/04/13 09:46:41;;;;;;;;;;;;;;;25.64;35.68;94092.50;5033538;28;7007;-58
2022/04/13 09:49:17;;;;;;;;;;;;;;;25.68;35.65;94092.94;5039826;28;7134;-58
2022/04/13 09:51:47;;;;;;;;;;;;;;;25.67;35.55;94085.94;5047580;28;9115;-58
2022/04/13 09:54:25;;;;;;;;;;;;;;;25.65;35.00;94093.97;5042878;28;8996;-58
2022/04/13 09:56:52;;;;;;;;;;;;;;;25.69;36.01;94088.16;5033636;28;7282;-58
2022/04/13 09:59:32;;;;;;;;;;;;;;;25.70;36.32;94095.19;5042745;28;9443;-58
2022/04/13 10:02:43;;;;;;;;;;;;;;;25.66;35.77;94084.47;5039787;28;7226;-58
2022/04/13 10:05:21;;;;;;;;;;;;;;;25.69;35.46;94088.91;5055042;28;8364;-58
2022/04/13 10:08:03;;;;;;;;;;;;;;;25.68;35.67;94076.41;5043837;28;9773;-58
2022/04/13 10:10:30;;;;;;;;;;;;;;;25.69;36.56;94080.66;5048959;28;9263;-58
2022/04/13 10:13:31;;;;;;;;;;;;;;;25.71;37.02;94086.38;5037110;28;7273;-58
2022/04/13 10:16:10;;;;;;;;;;;;;;;25.67;37.56;94077.66;4959988;28;7243;-58
2022/04/13 10:19:23;;;;;;;;;;;;;;;25.65;38.03;94071.94;4969736;28;9346;-58
2022/04/13 10:22:04;;;;;;;;;;;;;;;25.67;36.80;94085.19;4923168;28;9250;-58
2022/04/13 10:24:40;;;;;;;;;;;;;;;25.69;37.06;94077.13;4921685;29;8095;-58
2022/04/13 10:27:11;;;;;;;;;;;;;;;25.71;37.55;94080.88;4931753;28;10040;-59
2022/04/13 10:29:47;;;;;;;;;;;;;;;25.73;37.27;94072.09;4916248;29;8776;-58
2022/04/13 10:32:22;;;;;;;;;;;;;;;25.73;36.93;94075.59;4914483;29;7113;-58
2022/04/13 10:34:59;;;;;;;;;;;;;;;25.73;37.04;94067.31;4911096;29;9858;-58
2022/04/13 10:37:56;;;;;;;;;;;;;;;25.77;36.77;94067.81;4929927;29;7503;-58
2022/04/13 10:40:25;;;;;;;;;;;;;;;25.79;37.39;94064.53;4930656;29;7217;-58
2022/04/13 10:42:55;;;;;;;;;;;;;;;25.81;36.84;94067.50;4931446;29;9157;-58
2022/04/13 10:45:23;;;;;;;;;;;;;;;25.80;37.15;94052.97;4914019;29;7207;-58
2022/04/13 10:48:09;;;;;;;;;;;;;;;25.85;36.80;94048.66;4928600;29;6987;-58
2022/04/13 10:51:14;;;;;;;;;;;;;;;25.86;37.73;94053.63;4931303;29;7357;-58
2022/04/13 10:54:05;;;;;;;;;;;;;;;25.86;37.42;94050.16;4956485;28;9046;-58
2022/04/13 10:56:34;;;;;;;;;;;;;;;25.87;36.90;94046.13;4963685;28;7322;-58
2022/04/13 10:59:22;;;;;;;;;;;;;;;25.89;37.65;94046.34;5010120;28;9008;-58
2022/04/13 11:02:04;;;;;;;;;;;;;;;25.88;37.10;94048.34;5038781;28;7234;-58
2022/04/13 11:04:32;;;;;;;;;;;;;;;25.91;37.45;94049.31;5057924;28;9243;-59
2022/04/13 11:07:02;;;;;;;;;;;;;;;25.90;37.10;94043.06;5041035;28;7578;-58
2022/04/13 11:09:41;;;;;;;;;;;;;;;25.93;37.11;94047.53;5043501;28;7892;-58
2022/04/13 11:12:13;;;;;;;;;;;;;;;25.95;37.03;94053.28;5049131;28;7062;-58
2022/04/13 11:15:14;;;;;;;;;;;;;;;25.95;38.07;94050.50;5039756;28;7227;-58
2022/04/13 11:17:42;;;;;;;;;;;;;;;25.96;37.64;94049.25;5019906;28;9492;-58
2022/04/13 11:20:21;;;;;;;;;;;;;;;25.97;37.66;94045.22;5011450;28;8914;-58
2022/04/13 11:23:13;;;;;;;;;;;;;;;25.97;37.32;94042.47;5029765;28;7002;-59
2022/04/13 11:25:58;;;;;;;;;;;;;;;25.97;37.69;94045.22;4934764;28;9068;-58
2022/04/13 11:28:46;;;;;;;;;;;;;;;25.99;37.54;94042.69;4935702;28;8841;-58
2022/04/13 11:31:26;;;;;;;;;;;;;;;26.00;37.34;94041.44;4945290;28;8944;-58
2022/04/13 11:33:56;;;;;;;;;;;;;;;26.00;37.85;94041.44;4931295;28;9171;-58
2022/04/13 11:36:52;;;;;;;;;;;;;;;26.02;37.90;94038.91;4930009;28;7283;-58
2022/04/13 11:39:57;;;;;;;;;;;;;;;26.04;37.02;94035.63;4946261;28;7306;-58
2022/04/13 11:42:25;;;;;;;;;;;;;;;26.06;37.19;94039.34;4924806;28;7281;-59
2022/04/13 11:45:15;;;;;;;;;;;;;;;26.07;37.07;94038.09;4947534;28;9082;-58
2022/04/13 11:48:00;;;;;;;;;;;;;;;26.07;37.55;94046.34;4952050;28;7038;-58
2022/04/13 11:50:44;;;;;;;;;;;;;;;26.09;37.33;94040.34;4934325;29;7503;-58
2022/04/13 11:53:31;;;;;;;;;;;;;;;26.11;37.63;94033.06;4945101;28;9187;-58
2022/04/13 11:56:06;;;;;;;;;;;;;;;26.11;37.76;94037.81;4963874;28;9060;-58
2022/04/13 11:58:32;;;;;;;;;;;;;;;26.13;37.35;94038.78;4976593;28;7609;-59
2022/04/13 12:01:11;;;;;;;;;;;;;;;26.16;36.84;94032.22;4970076;28;7179;-59
2022/04/13 12:03:47;;;;;;;;;;;;;;;26.15;37.17;94027.97;5044443;28;7222;-58
2022/04/13 12:06:16;;;;;;;;;;;;;;;26.20;37.10;94026.41;5046227;28;9189;-59
2022/04/13 12:09:02;;;;;;;;;;;;;;;26.20;37.13;94026.41;5041948;28;9134;-59
2022/04/13 12:12:04;;;;;;;;;;;;;;;26.22;37.26;94029.38;5040820;28;9522;-58
2022/04/13 12:14:36;;;;;;;;;;;;;;;26.21;36.71;94024.41;4948454;28;7088;-59
2022/04/13 12:17:04;;;;;;;;;;;;;;;26.23;37.28;94030.84;4941852;28;9901;-59
2022/04/13 12:20:16;;;;;;;;;;;;;;;26.25;36.59;94030.34;4949349;28;9864;-60
2022/04/13 12:22:45;;;;;;;;;;;;;;;26.25;37.38;94030.34;4904194;29;7237;-59
2022/04/13 12:25:14;;;;;;;;;;;;;;;26.28;36.47;94032.03;4898542;29;7275;-59
2022/04/13 12:28:35;;;;;;;;;;;;;;;26.28;37.45;94032.03;4896111;29;7180;-60
2022/04/13 12:31:10;;;;;;;;;;;;;;;26.28;37.00;94032.78;4855513;29;7069;-60
2022/04/13 12:33:38;;;;;;;;;;;;;;;26.29;36.94;94028.78;4855866;29;7317;-60
2022/04/13 12:36:06;;;;;;;;;;;;;;;26.29;36.94;94020.50;4841307;29;7027;-60
2022/04/13 12:39:11;;;;;;;;;;;;;;;26.29;37.67;94012.25;4850091;29;7846;-60
2022/04/13 12:41:54;;;;;;;;;;;;;;;26.30;37.65;94013.72;4841179;29;9184;-59
2022/04/13 12:44:23;;;;;;;;;;;;;;;26.30;37.04;94015.72;4839499;29;8325;-60
2022/04/13 12:47:27;;;;;;;;;;;;;;;26.31;37.78;94015.22;4849049;29;7268;-60
2022/04/13 12:50:25;;;;;;;;;;;;;;;26.32;37.65;94010.47;4776088;29;7204;-60
2022/04/13 12:53:28;;;;;;;;;;;;;;;26.37;37.38;94009.59;4802394;29;7707;-60
2022/04/13 12:55:56;;;;;;;;;;;;;;;26.40;36.82;94016.84;4810361;29;7231;-60
2022/04/13 12:58:37;;;;;;;;;;;;;;;26.42;37.75;93998.50;4802912;29;9464;-60
2022/04/13 13:01:04;;;;;;;;;;;;;;;26.44;37.44;94009.00;4875530;29;8024;-60
2022/04/13 13:03:35;;;;;;;;;;;;;;;26.45;36.89;94004.97;4864012;29;7252;-60
2022/04/13 13:06:12;;;;;;;;;;;;;;;26.46;37.87;93998.94;4855194;29;7375;-60
2022/04/13 13:08:56;;;;;;;;;;;;;;;26.48;37.92;94007.44;4844362;29;7243;-59
2022/04/13 13:11:28;;;;;;;;;;;;;;;26.51;36.93;94008.41;4853026;29;9648;-60
2022/04/13 13:14:07;;;;;;;;;;;;;;;26.54;37.62;94001.81;4853170;29;7664;-60
2022/04/13 13:16:36;;;;;;;;;;;;;;;26.54;37.82;94002.56;4839077;29;7822;-60
2022/04/13 13:19:14;;;;;;;;;;;;;;;26.56;37.40;94002.03;4925245;29;8951;-60
2022/04/13 13:22:17;;;;;;;;;;;;;;;26.57;37.60;93992.50;4931223;28;7376;-60
2022/04/13 13:25:12;;;;;;;;;;;;;;;26.58;36.96;93988.44;4996749;28;9140;-60
2022/04/13 13:27:41;;;;;;;;;;;;;;;26.57;37.89;93992.50;4995844;28;9188;-60
2022/04/13 13:30:21;;;;;;;;;;;;;;;26.57;37.13;93982.22;5046721;28;9508;-60
2022/04/13 13:32:58;;;;;;;;;;;;;;;26.58;37.92;93972.66;5047086;28;7173;-60
2022/04/13 13:35:38;;;;;;;;;;;;;;;26.61;37.23;93977.13;5040649;28;9046;-60